sensor_id;sensor_type;location;lat;lon;timestamp;P1;durP1;ratioP1;P2;durP2;ratioP2
14698;SDS011;7439;50.804;4.602;2023-05-07T00:01:58;11.97;;;5.87;;
14698;SDS011;7439;50.804;4.602;2023-05-07T00:04:26;10.03;;;6.27;;
14698;SDS011;7439;50.804;4.602;2023-05-07T00:06:54;9.43;;;5.97;;
14698;SDS011;7439;50.804;4.602;2023-05-07T00:09:24;10.23;;;6.50;;
14698;SDS011;7439;50.804;4.602;2023-05-07T00:11:51;11.83;;;6.03;;
14698;SDS011;7439;50.804;4.602;2023-05-07T00:14:18;9.50;;;6.17;;
14698;SDS011;7439;50.804;4.602;2023-05-07T00:16:46;7.87;;;6.20;;
14698;SDS011;7439;50.804;4.602;2023-05-07T00:19:14;7.93;;;5.80;;
14698;SDS011;7439;50.804;4.602;2023-05-07T00:21:42;9.47;;;6.20;;
14698;SDS011;7439;50.804;4.602;2023-05-07T00:24:09;9.73;;;6.60;;
14698;SDS011;7439;50.804;4.602;2023-05-07T00:26:36;12.53;;;6.23;;
14698;SDS011;7439;50.804;4.602;2023-05-07T00:29:03;8.97;;;7.03;;
14698;SDS011;7439;50.804;4.602;2023-05-07T00:31:34;8.53;;;6.53;;
14698;SDS011;7439;50.804;4.602;2023-05-07T00:34:04;6.87;;;6.17;;
14698;SDS011;7439;50.804;4.602;2023-05-07T00:36:34;7.80;;;5.97;;
14698;SDS011;7439;50.804;4.602;2023-05-07T00:39:03;7.93;;;5.90;;
14698;SDS011;7439;50.804;4.602;2023-05-07T00:41:32;9.33;;;6.33;;
14698;SDS011;7439;50.804;4.602;2023-05-07T00:43:59;7.83;;;5.73;;
14698;SDS011;7439;50.804;4.602;2023-05-07T00:46:27;8.83;;;6.27;;
14698;SDS011;7439;50.804;4.602;2023-05-07T00:48:57;8.07;;;5.70;;
14698;SDS011;7439;50.804;4.602;2023-05-07T00:51:25;7.40;;;6.10;;
14698;SDS011;7439;50.804;4.602;2023-05-07T00:53:53;9.90;;;6.50;;
14698;SDS011;7439;50.804;4.602;2023-05-07T00:56:22;9.73;;;6.60;;
14698;SDS011;7439;50.804;4.602;2023-05-07T00:58:50;10.23;;;6.33;;
14698;SDS011;7439;50.804;4.602;2023-05-07T01:01:18;11.30;;;6.70;;
14698;SDS011;7439;50.804;4.602;2023-05-07T01:03:45;7.63;;;5.70;;
14698;SDS011;7439;50.804;4.602;2023-05-07T01:06:12;11.00;;;6.47;;
14698;SDS011;7439;50.804;4.602;2023-05-07T01:08:42;7.97;;;6.07;;
14698;SDS011;7439;50.804;4.602;2023-05-07T01:11:10;7.17;;;6.10;;
14698;SDS011;7439;50.804;4.602;2023-05-07T01:13:39;9.40;;;6.37;;
14698;SDS011;7439;50.804;4.602;2023-05-07T01:16:08;14.30;;;6.37;;
14698;SDS011;7439;50.804;4.602;2023-05-07T01:18:37;10.73;;;6.70;;
14698;SDS011;7439;50.804;4.602;2023-05-07T01:21:04;6.73;;;6.13;;
14698;SDS011;7439;50.804;4.602;2023-05-07T01:23:33;10.40;;;5.77;;
14698;SDS011;7439;50.804;4.602;2023-05-07T01:26:02;8.90;;;6.03;;
14698;SDS011;7439;50.804;4.602;2023-05-07T01:28:30;7.90;;;6.33;;
14698;SDS011;7439;50.804;4.602;2023-05-07T01:30:58;7.70;;;5.73;;
14698;SDS011;7439;50.804;4.602;2023-05-07T01:33:29;10.77;;;6.43;;
14698;SDS011;7439;50.804;4.602;2023-05-07T01:35:58;10.67;;;7.00;;
14698;SDS011;7439;50.804;4.602;2023-05-07T01:38:28;8.63;;;6.83;;
14698;SDS011;7439;50.804;4.602;2023-05-07T01:40:57;9.50;;;6.63;;
14698;SDS011;7439;50.804;4.602;2023-05-07T01:43:25;9.37;;;7.10;;
14698;SDS011;7439;50.804;4.602;2023-05-07T01:45:52;10.63;;;7.07;;
14698;SDS011;7439;50.804;4.602;2023-05-07T01:48:19;7.70;;;6.27;;
14698;SDS011;7439;50.804;4.602;2023-05-07T01:50:47;7.30;;;6.60;;
14698;SDS011;7439;50.804;4.602;2023-05-07T01:53:15;11.30;;;7.23;;
14698;SDS011;7439;50.804;4.602;2023-05-07T01:55:42;8.50;;;6.30;;
14698;SDS011;7439;50.804;4.602;2023-05-07T01:58:11;8.47;;;7.03;;
14698;SDS011;7439;50.804;4.602;2023-05-07T02:00:39;12.40;;;7.60;;
14698;SDS011;7439;50.804;4.602;2023-05-07T02:03:07;9.10;;;6.37;;
14698;SDS011;7439;50.804;4.602;2023-05-07T02:05:34;9.70;;;6.67;;
14698;SDS011;7439;50.804;4.602;2023-05-07T02:08:01;8.87;;;6.47;;
14698;SDS011;7439;50.804;4.602;2023-05-07T02:10:29;11.83;;;6.70;;
14698;SDS011;7439;50.804;4.602;2023-05-07T02:12:56;7.70;;;6.43;;
14698;SDS011;7439;50.804;4.602;2023-05-07T02:15:24;10.67;;;6.80;;
14698;SDS011;7439;50.804;4.602;2023-05-07T02:17:58;7.43;;;6.00;;
14698;SDS011;7439;50.804;4.602;2023-05-07T02:20:26;9.87;;;6.20;;
14698;SDS011;7439;50.804;4.602;2023-05-07T02:22:53;14.53;;;7.23;;
14698;SDS011;7439;50.804;4.602;2023-05-07T02:25:20;10.70;;;6.23;;
14698;SDS011;7439;50.804;4.602;2023-05-07T02:27:47;10.87;;;7.10;;
14698;SDS011;7439;50.804;4.602;2023-05-07T02:30:14;12.10;;;6.27;;
14698;SDS011;7439;50.804;4.602;2023-05-07T02:32:43;12.00;;;6.63;;
14698;SDS011;7439;50.804;4.602;2023-05-07T02:35:10;8.17;;;6.27;;
14698;SDS011;7439;50.804;4.602;2023-05-07T02:37:37;7.43;;;6.47;;
14698;SDS011;7439;50.804;4.602;2023-05-07T02:40:05;8.13;;;6.67;;
14698;SDS011;7439;50.804;4.602;2023-05-07T02:42:32;7.13;;;6.10;;
14698;SDS011;7439;50.804;4.602;2023-05-07T02:45:00;9.93;;;6.30;;
14698;SDS011;7439;50.804;4.602;2023-05-07T02:47:27;7.20;;;6.37;;
14698;SDS011;7439;50.804;4.602;2023-05-07T02:49:55;9.23;;;6.50;;
14698;SDS011;7439;50.804;4.602;2023-05-07T02:52:23;7.57;;;6.67;;
14698;SDS011;7439;50.804;4.602;2023-05-07T02:54:50;11.57;;;7.23;;
14698;SDS011;7439;50.804;4.602;2023-05-07T02:57:17;10.93;;;7.27;;
14698;SDS011;7439;50.804;4.602;2023-05-07T02:59:44;9.27;;;7.07;;
14698;SDS011;7439;50.804;4.602;2023-05-07T03:02:11;9.70;;;7.00;;
14698;SDS011;7439;50.804;4.602;2023-05-07T03:04:39;8.27;;;6.60;;
14698;SDS011;7439;50.804;4.602;2023-05-07T03:07:08;10.30;;;6.67;;
14698;SDS011;7439;50.804;4.602;2023-05-07T03:09:35;7.30;;;6.30;;
14698;SDS011;7439;50.804;4.602;2023-05-07T03:12:02;10.43;;;6.97;;
14698;SDS011;7439;50.804;4.602;2023-05-07T03:14:29;9.13;;;6.63;;
14698;SDS011;7439;50.804;4.602;2023-05-07T03:16:57;8.20;;;7.40;;
14698;SDS011;7439;50.804;4.602;2023-05-07T03:19:24;7.27;;;6.60;;
14698;SDS011;7439;50.804;4.602;2023-05-07T03:21:51;9.83;;;6.97;;
14698;SDS011;7439;50.804;4.602;2023-05-07T03:24:19;7.43;;;5.97;;
14698;SDS011;7439;50.804;4.602;2023-05-07T03:26:46;15.03;;;6.43;;
14698;SDS011;7439;50.804;4.602;2023-05-07T03:29:13;12.13;;;6.67;;
14698;SDS011;7439;50.804;4.602;2023-05-07T03:31:41;10.57;;;6.90;;
14698;SDS011;7439;50.804;4.602;2023-05-07T03:34:08;9.87;;;6.80;;
14698;SDS011;7439;50.804;4.602;2023-05-07T03:36:35;12.30;;;7.23;;
14698;SDS011;7439;50.804;4.602;2023-05-07T03:39:03;9.07;;;6.67;;
14698;SDS011;7439;50.804;4.602;2023-05-07T03:41:31;8.13;;;6.53;;
14698;SDS011;7439;50.804;4.602;2023-05-07T03:43:59;8.77;;;6.97;;
14698;SDS011;7439;50.804;4.602;2023-05-07T03:46:26;9.10;;;6.40;;
14698;SDS011;7439;50.804;4.602;2023-05-07T03:48:53;7.87;;;6.63;;
14698;SDS011;7439;50.804;4.602;2023-05-07T03:51:20;11.97;;;6.73;;
14698;SDS011;7439;50.804;4.602;2023-05-07T03:53:47;9.47;;;7.23;;
14698;SDS011;7439;50.804;4.602;2023-05-07T03:56:14;12.50;;;7.63;;
14698;SDS011;7439;50.804;4.602;2023-05-07T03:58:43;9.67;;;6.90;;
14698;SDS011;7439;50.804;4.602;2023-05-07T04:01:11;8.93;;;6.43;;
14698;SDS011;7439;50.804;4.602;2023-05-07T04:03:41;7.20;;;6.43;;
14698;SDS011;7439;50.804;4.602;2023-05-07T04:06:08;9.07;;;6.87;;
14698;SDS011;7439;50.804;4.602;2023-05-07T04:08:35;11.27;;;6.70;;
14698;SDS011;7439;50.804;4.602;2023-05-07T04:11:02;9.53;;;6.83;;
14698;SDS011;7439;50.804;4.602;2023-05-07T04:13:30;8.20;;;6.57;;
14698;SDS011;7439;50.804;4.602;2023-05-07T04:15:58;10.07;;;6.57;;
14698;SDS011;7439;50.804;4.602;2023-05-07T04:18:27;8.10;;;6.43;;
14698;SDS011;7439;50.804;4.602;2023-05-07T04:20:54;10.37;;;6.50;;
14698;SDS011;7439;50.804;4.602;2023-05-07T04:23:21;8.53;;;7.07;;
14698;SDS011;7439;50.804;4.602;2023-05-07T04:25:49;11.73;;;6.80;;
14698;SDS011;7439;50.804;4.602;2023-05-07T04:28:17;8.27;;;6.37;;
14698;SDS011;7439;50.804;4.602;2023-05-07T04:30:44;8.00;;;6.30;;
14698;SDS011;7439;50.804;4.602;2023-05-07T04:33:13;15.80;;;7.33;;
14698;SDS011;7439;50.804;4.602;2023-05-07T04:35:41;8.40;;;6.50;;
14698;SDS011;7439;50.804;4.602;2023-05-07T04:38:09;8.47;;;6.50;;
14698;SDS011;7439;50.804;4.602;2023-05-07T04:40:36;8.60;;;6.03;;
14698;SDS011;7439;50.804;4.602;2023-05-07T04:43:04;7.30;;;6.60;;
14698;SDS011;7439;50.804;4.602;2023-05-07T04:45:32;7.57;;;6.30;;
14698;SDS011;7439;50.804;4.602;2023-05-07T04:47:59;11.27;;;6.70;;
14698;SDS011;7439;50.804;4.602;2023-05-07T04:50:28;8.20;;;6.73;;
14698;SDS011;7439;50.804;4.602;2023-05-07T04:52:55;10.67;;;6.60;;
14698;SDS011;7439;50.804;4.602;2023-05-07T04:55:22;9.00;;;6.40;;
14698;SDS011;7439;50.804;4.602;2023-05-07T04:57:49;8.17;;;6.80;;
14698;SDS011;7439;50.804;4.602;2023-05-07T05:00:18;7.77;;;6.90;;
14698;SDS011;7439;50.804;4.602;2023-05-07T05:02:45;10.03;;;6.83;;
14698;SDS011;7439;50.804;4.602;2023-05-07T05:05:12;7.70;;;6.57;;
14698;SDS011;7439;50.804;4.602;2023-05-07T05:07:42;11.50;;;7.10;;
14698;SDS011;7439;50.804;4.602;2023-05-07T05:10:09;7.73;;;7.03;;
14698;SDS011;7439;50.804;4.602;2023-05-07T05:12:36;7.67;;;6.30;;
14698;SDS011;7439;50.804;4.602;2023-05-07T05:15:03;7.50;;;6.60;;
14698;SDS011;7439;50.804;4.602;2023-05-07T05:17:31;8.80;;;6.70;;
14698;SDS011;7439;50.804;4.602;2023-05-07T05:20:00;8.87;;;6.30;;
14698;SDS011;7439;50.804;4.602;2023-05-07T05:22:27;8.77;;;6.80;;
14698;SDS011;7439;50.804;4.602;2023-05-07T05:24:57;7.87;;;6.40;;
14698;SDS011;7439;50.804;4.602;2023-05-07T05:27:25;12.23;;;8.00;;
14698;SDS011;7439;50.804;4.602;2023-05-07T05:29:52;8.57;;;6.77;;
14698;SDS011;7439;50.804;4.602;2023-05-07T05:32:19;9.67;;;7.00;;
14698;SDS011;7439;50.804;4.602;2023-05-07T05:34:47;9.60;;;7.37;;
14698;SDS011;7439;50.804;4.602;2023-05-07T05:37:15;11.63;;;8.03;;
14698;SDS011;7439;50.804;4.602;2023-05-07T05:39:42;13.37;;;7.67;;
14698;SDS011;7439;50.804;4.602;2023-05-07T05:42:10;13.07;;;7.40;;
14698;SDS011;7439;50.804;4.602;2023-05-07T05:44:37;8.87;;;6.80;;
14698;SDS011;7439;50.804;4.602;2023-05-07T05:47:05;7.83;;;6.50;;
14698;SDS011;7439;50.804;4.602;2023-05-07T05:49:32;7.77;;;6.93;;
14698;SDS011;7439;50.804;4.602;2023-05-07T05:51:59;8.13;;;6.33;;
14698;SDS011;7439;50.804;4.602;2023-05-07T05:54:26;14.87;;;7.43;;
14698;SDS011;7439;50.804;4.602;2023-05-07T05:56:53;9.97;;;7.67;;
14698;SDS011;7439;50.804;4.602;2023-05-07T05:59:22;11.97;;;7.43;;
14698;SDS011;7439;50.804;4.602;2023-05-07T06:01:49;8.63;;;7.40;;
14698;SDS011;7439;50.804;4.602;2023-05-07T06:04:17;10.03;;;7.93;;
14698;SDS011;7439;50.804;4.602;2023-05-07T06:06:47;10.43;;;6.90;;
14698;SDS011;7439;50.804;4.602;2023-05-07T06:09:15;11.00;;;7.00;;
14698;SDS011;7439;50.804;4.602;2023-05-07T06:11:42;10.10;;;7.87;;
14698;SDS011;7439;50.804;4.602;2023-05-07T06:14:09;8.53;;;7.37;;
14698;SDS011;7439;50.804;4.602;2023-05-07T06:16:37;9.07;;;6.50;;
14698;SDS011;7439;50.804;4.602;2023-05-07T06:19:04;8.30;;;6.40;;
14698;SDS011;7439;50.804;4.602;2023-05-07T06:21:31;11.23;;;6.80;;
14698;SDS011;7439;50.804;4.602;2023-05-07T06:23:58;10.93;;;8.60;;
14698;SDS011;7439;50.804;4.602;2023-05-07T06:26:25;11.37;;;9.23;;
14698;SDS011;7439;50.804;4.602;2023-05-07T06:28:52;10.87;;;9.10;;
14698;SDS011;7439;50.804;4.602;2023-05-07T06:31:19;10.87;;;9.03;;
14698;SDS011;7439;50.804;4.602;2023-05-07T06:33:48;11.00;;;6.63;;
14698;SDS011;7439;50.804;4.602;2023-05-07T06:36:15;9.77;;;7.23;;
14698;SDS011;7439;50.804;4.602;2023-05-07T06:38:43;11.03;;;7.47;;
14698;SDS011;7439;50.804;4.602;2023-05-07T06:41:12;10.40;;;7.60;;
14698;SDS011;7439;50.804;4.602;2023-05-07T06:43:40;8.97;;;7.30;;
14698;SDS011;7439;50.804;4.602;2023-05-07T06:46:07;11.50;;;8.33;;
14698;SDS011;7439;50.804;4.602;2023-05-07T06:48:34;9.83;;;7.20;;
14698;SDS011;7439;50.804;4.602;2023-05-07T06:51:03;10.60;;;8.60;;
14698;SDS011;7439;50.804;4.602;2023-05-07T06:53:30;9.87;;;7.47;;
14698;SDS011;7439;50.804;4.602;2023-05-07T06:55:57;13.17;;;7.90;;
14698;SDS011;7439;50.804;4.602;2023-05-07T06:58:24;11.20;;;8.20;;
14698;SDS011;7439;50.804;4.602;2023-05-07T07:00:54;12.63;;;8.17;;
14698;SDS011;7439;50.804;4.602;2023-05-07T07:03:22;12.00;;;8.10;;
14698;SDS011;7439;50.804;4.602;2023-05-07T07:05:51;10.80;;;7.40;;
14698;SDS011;7439;50.804;4.602;2023-05-07T07:08:19;10.97;;;8.13;;
14698;SDS011;7439;50.804;4.602;2023-05-07T07:10:47;10.83;;;7.50;;
14698;SDS011;7439;50.804;4.602;2023-05-07T07:13:14;9.50;;;6.93;;
14698;SDS011;7439;50.804;4.602;2023-05-07T07:15:42;18.03;;;8.03;;
14698;SDS011;7439;50.804;4.602;2023-05-07T07:18:10;9.97;;;7.00;;
14698;SDS011;7439;50.804;4.602;2023-05-07T07:20:37;8.87;;;6.37;;
14698;SDS011;7439;50.804;4.602;2023-05-07T07:23:04;9.57;;;5.63;;
14698;SDS011;7439;50.804;4.602;2023-05-07T07:25:32;12.87;;;5.30;;
14698;SDS011;7439;50.804;4.602;2023-05-07T07:28:00;11.10;;;5.63;;
14698;SDS011;7439;50.804;4.602;2023-05-07T07:30:27;9.53;;;5.57;;
14698;SDS011;7439;50.804;4.602;2023-05-07T07:32:54;7.67;;;5.03;;
14698;SDS011;7439;50.804;4.602;2023-05-07T07:35:27;10.10;;;5.47;;
14698;SDS011;7439;50.804;4.602;2023-05-07T07:37:54;10.03;;;5.37;;
14698;SDS011;7439;50.804;4.602;2023-05-07T07:40:21;9.53;;;5.23;;
14698;SDS011;7439;50.804;4.602;2023-05-07T07:42:49;8.83;;;5.67;;
14698;SDS011;7439;50.804;4.602;2023-05-07T07:45:16;7.93;;;5.83;;
14698;SDS011;7439;50.804;4.602;2023-05-07T07:47:44;6.77;;;4.93;;
14698;SDS011;7439;50.804;4.602;2023-05-07T07:50:11;9.40;;;5.80;;
14698;SDS011;7439;50.804;4.602;2023-05-07T07:52:38;8.37;;;5.90;;
14698;SDS011;7439;50.804;4.602;2023-05-07T07:55:06;8.90;;;5.57;;
14698;SDS011;7439;50.804;4.602;2023-05-07T07:57:34;11.87;;;6.07;;
14698;SDS011;7439;50.804;4.602;2023-05-07T08:00:03;8.87;;;6.03;;
14698;SDS011;7439;50.804;4.602;2023-05-07T08:02:32;12.77;;;6.03;;
14698;SDS011;7439;50.804;4.602;2023-05-07T08:04:59;8.67;;;6.00;;
14698;SDS011;7439;50.804;4.602;2023-05-07T08:07:26;6.60;;;5.70;;
14698;SDS011;7439;50.804;4.602;2023-05-07T08:09:53;8.63;;;5.43;;
14698;SDS011;7439;50.804;4.602;2023-05-07T08:12:20;8.00;;;5.37;;
14698;SDS011;7439;50.804;4.602;2023-05-07T08:14:47;8.13;;;5.30;;
14698;SDS011;7439;50.804;4.602;2023-05-07T08:17:16;9.40;;;5.60;;
14698;SDS011;7439;50.804;4.602;2023-05-07T08:19:43;7.03;;;4.73;;
14698;SDS011;7439;50.804;4.602;2023-05-07T08:22:10;8.70;;;5.00;;
14698;SDS011;7439;50.804;4.602;2023-05-07T08:24:37;9.27;;;5.23;;
14698;SDS011;7439;50.804;4.602;2023-05-07T08:27:04;9.90;;;5.60;;
14698;SDS011;7439;50.804;4.602;2023-05-07T08:29:32;7.70;;;5.33;;
14698;SDS011;7439;50.804;4.602;2023-05-07T08:31:59;9.50;;;5.00;;
14698;SDS011;7439;50.804;4.602;2023-05-07T08:34:27;9.63;;;5.13;;
14698;SDS011;7439;50.804;4.602;2023-05-07T08:36:54;7.50;;;4.67;;
14698;SDS011;7439;50.804;4.602;2023-05-07T08:39:22;6.10;;;4.40;;
14698;SDS011;7439;50.804;4.602;2023-05-07T08:41:49;10.13;;;4.93;;
14698;SDS011;7439;50.804;4.602;2023-05-07T08:44:21;8.97;;;5.60;;
14698;SDS011;7439;50.804;4.602;2023-05-07T08:46:52;6.90;;;5.13;;
14698;SDS011;7439;50.804;4.602;2023-05-07T08:49:22;6.97;;;4.97;;
14698;SDS011;7439;50.804;4.602;2023-05-07T08:51:51;6.87;;;5.00;;
14698;SDS011;7439;50.804;4.602;2023-05-07T08:54:19;6.43;;;5.43;;
14698;SDS011;7439;50.804;4.602;2023-05-07T08:56:47;6.47;;;5.00;;
14698;SDS011;7439;50.804;4.602;2023-05-07T08:59:15;10.43;;;5.17;;
14698;SDS011;7439;50.804;4.602;2023-05-07T09:01:42;6.23;;;5.33;;
14698;SDS011;7439;50.804;4.602;2023-05-07T09:04:09;9.37;;;5.83;;
14698;SDS011;7439;50.804;4.602;2023-05-07T09:06:37;7.87;;;5.47;;
14698;SDS011;7439;50.804;4.602;2023-05-07T09:09:08;6.43;;;4.90;;
14698;SDS011;7439;50.804;4.602;2023-05-07T09:11:35;10.97;;;5.77;;
14698;SDS011;7439;50.804;4.602;2023-05-07T09:14:02;9.90;;;5.93;;
14698;SDS011;7439;50.804;4.602;2023-05-07T09:16:30;8.00;;;5.27;;
14698;SDS011;7439;50.804;4.602;2023-05-07T09:18:57;7.20;;;5.47;;
14698;SDS011;7439;50.804;4.602;2023-05-07T09:21:25;9.63;;;6.00;;
14698;SDS011;7439;50.804;4.602;2023-05-07T09:23:53;6.13;;;5.43;;
14698;SDS011;7439;50.804;4.602;2023-05-07T09:26:23;9.07;;;5.10;;
14698;SDS011;7439;50.804;4.602;2023-05-07T09:28:50;7.63;;;5.47;;
14698;SDS011;7439;50.804;4.602;2023-05-07T09:31:18;7.57;;;5.23;;
14698;SDS011;7439;50.804;4.602;2023-05-07T09:33:46;9.13;;;5.40;;
14698;SDS011;7439;50.804;4.602;2023-05-07T09:36:13;10.77;;;5.97;;
14698;SDS011;7439;50.804;4.602;2023-05-07T09:38:40;8.10;;;5.30;;
14698;SDS011;7439;50.804;4.602;2023-05-07T09:41:09;8.00;;;5.80;;
14698;SDS011;7439;50.804;4.602;2023-05-07T09:43:39;10.13;;;5.67;;
14698;SDS011;7439;50.804;4.602;2023-05-07T09:46:07;8.37;;;5.67;;
14698;SDS011;7439;50.804;4.602;2023-05-07T09:48:38;8.63;;;6.30;;
14698;SDS011;7439;50.804;4.602;2023-05-07T09:51:07;8.43;;;6.10;;
14698;SDS011;7439;50.804;4.602;2023-05-07T09:53:42;8.73;;;5.83;;
14698;SDS011;7439;50.804;4.602;2023-05-07T09:56:13;10.47;;;6.57;;
14698;SDS011;7439;50.804;4.602;2023-05-07T09:58:43;8.80;;;6.00;;
14698;SDS011;7439;50.804;4.602;2023-05-07T10:01:11;9.40;;;6.37;;
14698;SDS011;7439;50.804;4.602;2023-05-07T10:03:39;7.93;;;6.23;;
14698;SDS011;7439;50.804;4.602;2023-05-07T10:06:08;9.10;;;6.00;;
14698;SDS011;7439;50.804;4.602;2023-05-07T10:08:35;13.63;;;7.97;;
14698;SDS011;7439;50.804;4.602;2023-05-07T10:11:03;7.57;;;6.63;;
14698;SDS011;7439;50.804;4.602;2023-05-07T10:13:31;8.33;;;6.60;;
14698;SDS011;7439;50.804;4.602;2023-05-07T10:16:02;7.80;;;6.93;;
14698;SDS011;7439;50.804;4.602;2023-05-07T10:18:30;8.07;;;7.20;;
14698;SDS011;7439;50.804;4.602;2023-05-07T10:21:01;9.40;;;6.87;;
14698;SDS011;7439;50.804;4.602;2023-05-07T10:23:31;8.70;;;7.90;;
14698;SDS011;7439;50.804;4.602;2023-05-07T10:25:59;7.77;;;6.97;;
14698;SDS011;7439;50.804;4.602;2023-05-07T10:28:30;8.70;;;7.90;;
14698;SDS011;7439;50.804;4.602;2023-05-07T10:31:10;9.87;;;7.83;;
14698;SDS011;7439;50.804;4.602;2023-05-07T10:33:50;13.57;;;9.50;;
14698;SDS011;7439;50.804;4.602;2023-05-07T10:36:19;11.23;;;10.10;;
14698;SDS011;7439;50.804;4.602;2023-05-07T10:38:47;11.70;;;8.83;;
14698;SDS011;7439;50.804;4.602;2023-05-07T10:41:15;12.93;;;10.30;;
14698;SDS011;7439;50.804;4.602;2023-05-07T10:43:44;10.27;;;9.37;;
14698;SDS011;7439;50.804;4.602;2023-05-07T10:46:14;11.47;;;10.27;;
14698;SDS011;7439;50.804;4.602;2023-05-07T10:51:36;12.40;;;11.33;;
14698;SDS011;7439;50.804;4.602;2023-05-07T10:54:18;11.77;;;10.73;;
14698;SDS011;7439;50.804;4.602;2023-05-07T10:56:47;10.97;;;10.00;;
14698;SDS011;7439;50.804;4.602;2023-05-07T10:59:32;10.33;;;9.37;;
14698;SDS011;7439;50.804;4.602;2023-05-07T11:02:07;11.50;;;10.00;;
14698;SDS011;7439;50.804;4.602;2023-05-07T11:04:36;10.57;;;9.50;;
14698;SDS011;7439;50.804;4.602;2023-05-07T11:10:00;10.27;;;9.20;;
14698;SDS011;7439;50.804;4.602;2023-05-07T11:12:52;9.47;;;8.37;;
14698;SDS011;7439;50.804;4.602;2023-05-07T11:15:38;10.53;;;9.63;;
14698;SDS011;7439;50.804;4.602;2023-05-07T11:18:09;9.77;;;7.93;;
14698;SDS011;7439;50.804;4.602;2023-05-07T11:20:53;9.13;;;8.23;;
14698;SDS011;7439;50.804;4.602;2023-05-07T11:26:26;8.27;;;6.83;;
14698;SDS011;7439;50.804;4.602;2023-05-07T11:28:54;8.43;;;7.43;;
14698;SDS011;7439;50.804;4.602;2023-05-07T11:31:22;7.80;;;7.07;;
14698;SDS011;7439;50.804;4.602;2023-05-07T11:33:53;9.30;;;7.47;;
14698;SDS011;7439;50.804;4.602;2023-05-07T11:36:22;8.93;;;7.70;;
14698;SDS011;7439;50.804;4.602;2023-05-07T11:38:50;9.17;;;6.80;;
14698;SDS011;7439;50.804;4.602;2023-05-07T11:41:17;8.00;;;7.30;;
14698;SDS011;7439;50.804;4.602;2023-05-07T11:43:58;7.27;;;6.57;;
14698;SDS011;7439;50.804;4.602;2023-05-07T11:46:26;8.27;;;7.47;;
14698;SDS011;7439;50.804;4.602;2023-05-07T11:48:56;7.10;;;6.53;;
14698;SDS011;7439;50.804;4.602;2023-05-07T11:51:23;6.83;;;6.23;;
14698;SDS011;7439;50.804;4.602;2023-05-07T11:53:52;6.67;;;6.27;;
14698;SDS011;7439;50.804;4.602;2023-05-07T11:56:19;6.90;;;6.40;;
14698;SDS011;7439;50.804;4.602;2023-05-07T11:58:49;7.47;;;6.87;;
14698;SDS011;7439;50.804;4.602;2023-05-07T12:01:17;8.07;;;7.33;;
14698;SDS011;7439;50.804;4.602;2023-05-07T12:03:44;8.43;;;7.53;;
14698;SDS011;7439;50.804;4.602;2023-05-07T12:06:14;7.87;;;7.10;;
14698;SDS011;7439;50.804;4.602;2023-05-07T12:08:43;6.83;;;6.23;;
14698;SDS011;7439;50.804;4.602;2023-05-07T12:11:13;7.33;;;6.77;;
14698;SDS011;7439;50.804;4.602;2023-05-07T12:13:42;6.03;;;5.47;;
14698;SDS011;7439;50.804;4.602;2023-05-07T12:16:09;6.30;;;5.70;;
14698;SDS011;7439;50.804;4.602;2023-05-07T12:18:37;6.73;;;6.10;;
14698;SDS011;7439;50.804;4.602;2023-05-07T12:21:05;6.03;;;5.37;;
14698;SDS011;7439;50.804;4.602;2023-05-07T12:23:34;6.60;;;5.87;;
14698;SDS011;7439;50.804;4.602;2023-05-07T12:26:03;6.47;;;5.23;;
14698;SDS011;7439;50.804;4.602;2023-05-07T12:28:30;8.83;;;5.50;;
14698;SDS011;7439;50.804;4.602;2023-05-07T12:31:02;6.17;;;5.53;;
14698;SDS011;7439;50.804;4.602;2023-05-07T12:33:30;6.67;;;5.53;;
14698;SDS011;7439;50.804;4.602;2023-05-07T12:35:58;5.77;;;5.37;;
14698;SDS011;7439;50.804;4.602;2023-05-07T12:38:33;5.57;;;4.70;;
14698;SDS011;7439;50.804;4.602;2023-05-07T12:41:03;5.70;;;5.20;;
14698;SDS011;7439;50.804;4.602;2023-05-07T12:43:31;8.30;;;5.23;;
14698;SDS011;7439;50.804;4.602;2023-05-07T12:46:00;6.67;;;4.70;;
14698;SDS011;7439;50.804;4.602;2023-05-07T12:48:28;5.50;;;5.00;;
14698;SDS011;7439;50.804;4.602;2023-05-07T12:50:58;5.97;;;4.90;;
14698;SDS011;7439;50.804;4.602;2023-05-07T12:53:27;8.13;;;5.53;;
14698;SDS011;7439;50.804;4.602;2023-05-07T12:55:57;6.93;;;5.30;;
14698;SDS011;7439;50.804;4.602;2023-05-07T12:58:26;5.57;;;5.17;;
14698;SDS011;7439;50.804;4.602;2023-05-07T13:00:55;7.80;;;5.13;;
14698;SDS011;7439;50.804;4.602;2023-05-07T13:03:26;6.50;;;4.80;;
14698;SDS011;7439;50.804;4.602;2023-05-07T13:05:55;5.37;;;4.87;;
14698;SDS011;7439;50.804;4.602;2023-05-07T13:08:25;5.23;;;4.77;;
14698;SDS011;7439;50.804;4.602;2023-05-07T13:10:59;5.50;;;5.00;;
14698;SDS011;7439;50.804;4.602;2023-05-07T13:13:28;4.90;;;4.43;;
14698;SDS011;7439;50.804;4.602;2023-05-07T13:15:56;5.20;;;4.73;;
14698;SDS011;7439;50.804;4.602;2023-05-07T13:18:24;5.50;;;5.00;;
14698;SDS011;7439;50.804;4.602;2023-05-07T13:20:52;5.13;;;4.63;;
14698;SDS011;7439;50.804;4.602;2023-05-07T13:23:19;4.90;;;4.50;;
14698;SDS011;7439;50.804;4.602;2023-05-07T13:25:47;4.50;;;3.90;;
14698;SDS011;7439;50.804;4.602;2023-05-07T13:28:17;5.63;;;4.87;;
14698;SDS011;7439;50.804;4.602;2023-05-07T13:30:45;4.87;;;4.37;;
14698;SDS011;7439;50.804;4.602;2023-05-07T13:33:12;6.50;;;4.20;;
14698;SDS011;7439;50.804;4.602;2023-05-07T13:35:40;6.13;;;4.30;;
14698;SDS011;7439;50.804;4.602;2023-05-07T13:38:07;4.93;;;4.10;;
14698;SDS011;7439;50.804;4.602;2023-05-07T13:40:35;8.13;;;4.27;;
14698;SDS011;7439;50.804;4.602;2023-05-07T13:43:02;4.87;;;4.40;;
14698;SDS011;7439;50.804;4.602;2023-05-07T13:45:31;4.80;;;4.30;;
14698;SDS011;7439;50.804;4.602;2023-05-07T13:47:58;5.53;;;4.23;;
14698;SDS011;7439;50.804;4.602;2023-05-07T13:50:25;5.07;;;4.57;;
14698;SDS011;7439;50.804;4.602;2023-05-07T13:52:54;5.30;;;4.80;;
14698;SDS011;7439;50.804;4.602;2023-05-07T13:55:23;9.93;;;4.77;;
14698;SDS011;7439;50.804;4.602;2023-05-07T13:57:54;4.83;;;4.17;;
14698;SDS011;7439;50.804;4.602;2023-05-07T14:00:22;6.67;;;4.70;;
14698;SDS011;7439;50.804;4.602;2023-05-07T14:02:52;4.53;;;4.13;;
14698;SDS011;7439;50.804;4.602;2023-05-07T14:05:20;5.03;;;4.53;;
14698;SDS011;7439;50.804;4.602;2023-05-07T14:07:48;4.97;;;4.60;;
14698;SDS011;7439;50.804;4.602;2023-05-07T14:10:16;6.83;;;5.33;;
14698;SDS011;7439;50.804;4.602;2023-05-07T14:12:45;5.73;;;5.23;;
14698;SDS011;7439;50.804;4.602;2023-05-07T14:28:22;6.27;;;5.67;;
14698;SDS011;7439;50.804;4.602;2023-05-07T14:30:49;5.87;;;5.30;;
14698;SDS011;7439;50.804;4.602;2023-05-07T14:33:17;6.80;;;5.40;;
14698;SDS011;7439;50.804;4.602;2023-05-07T14:35:44;6.40;;;5.80;;
14698;SDS011;7439;50.804;4.602;2023-05-07T14:38:14;7.00;;;6.30;;
14698;SDS011;7439;50.804;4.602;2023-05-07T14:40:41;9.50;;;7.23;;
14698;SDS011;7439;50.804;4.602;2023-05-07T14:43:10;6.67;;;5.97;;
14698;SDS011;7439;50.804;4.602;2023-05-07T14:45:39;6.87;;;6.27;;
14698;SDS011;7439;50.804;4.602;2023-05-07T14:48:06;7.37;;;6.53;;
14698;SDS011;7439;50.804;4.602;2023-05-07T14:50:34;6.87;;;6.27;;
14698;SDS011;7439;50.804;4.602;2023-05-07T14:53:01;5.63;;;5.23;;
14698;SDS011;7439;50.804;4.602;2023-05-07T14:55:29;6.20;;;5.77;;
14698;SDS011;7439;50.804;4.602;2023-05-07T15:07:54;10.37;;;9.47;;
14698;SDS011;7439;50.804;4.602;2023-05-07T15:10:21;7.57;;;6.97;;
14698;SDS011;7439;50.804;4.602;2023-05-07T15:12:48;6.30;;;5.77;;
14698;SDS011;7439;50.804;4.602;2023-05-07T15:15:15;6.30;;;5.80;;
14698;SDS011;7439;50.804;4.602;2023-05-07T15:17:42;6.80;;;6.30;;
14698;SDS011;7439;50.804;4.602;2023-05-07T15:20:10;7.20;;;6.60;;
14698;SDS011;7439;50.804;4.602;2023-05-07T15:22:39;8.57;;;6.77;;
14698;SDS011;7439;50.804;4.602;2023-05-07T15:25:07;8.67;;;7.30;;
14698;SDS011;7439;50.804;4.602;2023-05-07T15:27:34;8.00;;;7.20;;
14698;SDS011;7439;50.804;4.602;2023-05-07T15:30:02;10.00;;;8.77;;
14698;SDS011;7439;50.804;4.602;2023-05-07T15:32:30;9.03;;;8.23;;
14698;SDS011;7439;50.804;4.602;2023-05-07T15:34:57;10.30;;;9.40;;
14698;SDS011;7439;50.804;4.602;2023-05-07T15:37:24;10.57;;;9.67;;